الصفحة الرئيسية
METAR-TAF:

METAR-TAF

مطار :

Acapulco, المكسيك

دائرة عرض: 16-46N, خط طول: 099-45W, ارتفاع: 5 متر

مراقبة الطقس الحالي

تاريخ ووقت الإصدار 1ساعة و 8 دقيقة قبل الساعة 14:45UTC
ريح 3 عقدة من الشمال
درجة الحرارة 27°درجة مئوية
الرطوبة 66%
ضغط 1013 hPa
الرؤية: 11.3 كم
غيوم قليلة على ارتفاع 30000 قدم

METAR: MMAA 251445Z 36003KT 7SM FEW300 27/20 A2990 RMK SLP128 52027 909 8/002 HZY

زمن: 10:53 (15:53 UTC)

توقعات

تاريخ ووقت الإصدار 5ساعات و 19 دقيقة قبل الساعة 10:34UTC
التوقعات صالحة من25 الساعة 12 UTC إلى 26 الساعة 18 UTC
ريح 5 عقدة من الشمال الشرقي
الرؤية: 8.0 كم
سماء صافية
العجاج
من 25 الساعة 1800 UTC
ريح 12 عقدة من الغرب/الجنوب الغربي
الرؤية: 10 كم
غيوم مفككة على ارتفاع 25000 قدم
من 26 الساعة 0600 UTC
ريح 5 عقدة من الشمال/الشمال الغربي
الرؤية: 10 كم
غيوم متفرقة على ارتفاع 25000 قدم
من 26 الساعة 1700 UTC
ريح 12 عقدة من الغرب/الجنوب الغربي
الرؤية: 10 كم
غيوم متفرقة على ارتفاع 2000 قدم
غيوم مفككة على ارتفاع 25000 قدم

TAF: MMAA 251034Z 2512/2618 04005KT 5SM HZ SKC TX28/2519Z TN22/2512Z FM251800 24012KT P6SM BKN250 FM260600 34005KT P6SM SCT250 FM261700 24012KT P6SM SCT020 BKN250

أرصاد الطقس والتوقعات من أكثر من 4000 مطار (تقارير الطقس للمطار METAR والتنبؤ بالطقس بالمطارTAF).

المحطات المتاحة هي النقط الصفراء والحمراء على الخريطة.

حرك المؤشر فوق النقطة لمعرفة اسم المحطة.

ثم انقر لمعرفة أرصاد وتوقعات الطقس.

لتغيير الخارطة: اضغط على الأزرار الخضراء مع رمز الصليب الأسود للتكبير. على الزر الأخضر مع شرطة للتصغير، أو على الأسهم الخضراء للخرائط المجاورة.


METAR-TAF: